createdAt,value
2023-05-09T00:01:45.479Z,56.15
2023-05-09T00:04:50.342Z,56.05
2023-05-09T00:07:52.445Z,55.97
2023-05-09T00:10:54.279Z,56.44
2023-05-09T00:13:55.993Z,56.69
2023-05-09T00:17:00.219Z,57.46
2023-05-09T00:20:05.290Z,58.04
2023-05-09T00:23:07.691Z,58.75
2023-05-09T00:26:10.579Z,59.15
2023-05-09T00:29:13.946Z,59.19
2023-05-09T00:32:15.875Z,59.34
2023-05-09T00:35:17.847Z,59.53
2023-05-09T00:38:19.678Z,59.78
2023-05-09T00:41:21.783Z,60.12
2023-05-09T00:44:23.613Z,60.39
2023-05-09T00:47:27.448Z,60.35
2023-05-09T00:50:29.259Z,60.25
2023-05-09T00:53:31.338Z,60.01
2023-05-09T00:56:33.407Z,59.82
2023-05-09T00:59:36.052Z,59.60
2023-05-09T01:02:38.020Z,59.54
2023-05-09T01:06:07.025Z,59.72
2023-05-09T01:09:30.349Z,59.67
2023-05-09T01:12:49.807Z,59.50
2023-05-09T01:16:01.477Z,59.71
2023-05-09T01:19:36.731Z,59.61
2023-05-09T01:22:46.142Z,59.63
2023-05-09T01:25:47.858Z,59.69
2023-05-09T01:29:09.997Z,60.07
2023-05-09T01:32:21.156Z,60.14
2023-05-09T01:35:26.505Z,60.06
2023-05-09T01:38:32.240Z,60.40
2023-05-09T01:41:37.697Z,60.34
2023-05-09T01:44:43.749Z,60.91
2023-05-09T01:47:48.088Z,61.11
2023-05-09T01:50:50.104Z,61.21
2023-05-09T01:53:55.324Z,61.51
2023-05-09T01:56:59.238Z,60.88
2023-05-09T02:00:03.869Z,60.67
2023-05-09T02:03:15.206Z,60.52
2023-05-09T02:06:21.140Z,60.29
2023-05-09T02:09:23.107Z,60.53
2023-05-09T02:12:25.171Z,60.43
2023-05-09T02:15:29.299Z,60.07
2023-05-09T02:18:32.777Z,59.86
2023-05-09T02:21:35.884Z,59.94
2023-05-09T02:24:38.006Z,59.75
2023-05-09T02:27:40.681Z,59.50
2023-05-09T02:30:45.844Z,59.84
2023-05-09T02:33:48.023Z,60.44
2023-05-09T02:50:33.980Z,61.44
2023-05-09T02:53:35.972Z,61.37
2023-05-09T02:56:38.160Z,60.93
2023-05-09T02:59:39.899Z,60.63
2023-05-09T03:02:41.686Z,60.38
2023-05-09T03:05:50.068Z,60.06
2023-05-09T03:08:51.840Z,60.22
2023-05-09T03:11:56.034Z,59.80
2023-05-09T03:14:57.836Z,59.94
2023-05-09T03:17:59.944Z,59.76
2023-05-09T03:21:01.802Z,59.87
2023-05-09T03:24:07.691Z,60.18
2023-05-09T03:27:11.644Z,60.01
2023-05-09T03:30:13.975Z,59.67
2023-05-09T03:33:17.276Z,59.96
2023-05-09T03:36:19.384Z,59.88
2023-05-09T03:39:21.234Z,59.84
2023-05-09T03:42:29.117Z,59.73
2023-05-09T03:45:36.180Z,60.10
2023-05-09T03:48:39.580Z,59.66
2023-05-09T03:51:42.288Z,59.67
2023-05-09T03:54:51.370Z,59.66
2023-05-09T03:57:53.925Z,59.76
2023-05-09T04:00:56.541Z,59.96
2023-05-09T04:04:00.603Z,60.39
2023-05-09T04:07:04.512Z,60.90
2023-05-09T04:10:07.641Z,61.12
2023-05-09T04:13:10.051Z,61.39
2023-05-09T04:16:12.488Z,61.21
2023-05-09T04:19:14.880Z,61.30
2023-05-09T04:22:16.771Z,61.23
2023-05-09T04:25:20.595Z,61.03
2023-05-09T04:28:23.326Z,61.07
2023-05-09T04:31:27.185Z,60.98
2023-05-09T04:34:29.742Z,60.92
2023-05-09T04:37:35.806Z,60.88
2023-05-09T04:40:38.083Z,60.63
2023-05-09T04:43:39.923Z,60.73
2023-05-09T04:46:42.396Z,60.62
2023-05-09T04:49:44.245Z,59.88
2023-05-09T04:52:46.130Z,59.79
2023-05-09T04:55:48.033Z,59.59
2023-05-09T04:58:50.469Z,59.48
2023-05-09T05:01:52.308Z,59.32
2023-05-09T05:05:06.174Z,58.67
2023-05-09T05:08:14.153Z,58.40
2023-05-09T05:11:20.667Z,58.08
2023-05-09T05:14:22.752Z,57.97
2023-05-09T05:17:24.902Z,58.48
2023-05-09T05:20:27.434Z,58.32
2023-05-09T05:23:29.259Z,58.48
2023-05-09T05:26:34.252Z,58.41
2023-05-09T05:29:36.713Z,58.51
2023-05-09T05:32:38.907Z,58.59
2023-05-09T05:35:41.074Z,58.22
2023-05-09T05:38:42.789Z,58.07
2023-05-09T05:41:44.675Z,57.65
2023-05-09T05:44:46.826Z,57.55
2023-05-09T05:47:48.862Z,57.20
2023-05-09T05:50:51.441Z,57.12
2023-05-09T05:53:57.151Z,56.81
2023-05-09T05:57:00.234Z,56.40
2023-05-09T06:00:02.808Z,56.38
2023-05-09T06:03:16.096Z,55.71
2023-05-09T06:06:32.362Z,55.37
2023-05-09T06:09:34.134Z,55.11
2023-05-09T06:12:36.100Z,54.26
2023-05-09T06:15:37.857Z,52.34
2023-05-09T06:18:40.288Z,51.68
2023-05-09T06:21:42.057Z,51.61
2023-05-09T06:24:43.807Z,51.04
2023-05-09T06:27:45.618Z,50.61
2023-05-09T06:30:47.316Z,49.79
2023-05-09T06:33:49.065Z,48.98
2023-05-09T06:36:50.931Z,48.63
2023-05-09T06:39:54.645Z,48.22
2023-05-09T06:42:56.499Z,47.65
2023-05-09T06:45:58.296Z,46.12
2023-05-09T06:49:02.034Z,44.98
2023-05-09T06:52:03.888Z,43.90
2023-05-09T06:55:06.229Z,42.25
2023-05-09T06:58:08.158Z,40.85
2023-05-09T07:01:09.985Z,39.22
2023-05-09T07:04:11.749Z,38.60
2023-05-09T07:07:13.454Z,37.40
2023-05-09T07:10:15.133Z,37.08
2023-05-09T07:13:16.932Z,36.06
2023-05-09T07:16:18.764Z,35.18
2023-05-09T07:19:20.714Z,35.14
2023-05-09T07:22:22.489Z,35.16
2023-05-09T07:25:24.386Z,35.27
2023-05-09T07:28:26.332Z,35.87
2023-05-09T07:31:28.296Z,35.94
2023-05-09T07:34:29.981Z,34.73
2023-05-09T07:37:31.937Z,33.46
2023-05-09T07:40:36.439Z,33.80
2023-05-09T07:43:38.334Z,33.28
2023-05-09T07:46:42.054Z,32.85
2023-05-09T07:49:46.445Z,32.42
2023-05-09T07:52:49.715Z,32.44
2023-05-09T07:55:51.518Z,32.89
2023-05-09T07:58:55.068Z,32.98
2023-05-09T08:01:57.686Z,32.25
2023-05-09T08:04:59.508Z,31.39
2023-05-09T08:08:01.206Z,31.03
2023-05-09T08:11:02.860Z,30.53
2023-05-09T08:14:04.700Z,30.74
2023-05-09T08:17:06.533Z,30.69
2023-05-09T08:20:12.222Z,30.08
2023-05-09T08:23:14.229Z,29.69
2023-05-09T08:26:16.211Z,30.25
2023-05-09T08:29:18.163Z,30.38
2023-05-09T08:32:20.204Z,30.20
2023-05-09T08:35:22.169Z,30.44
2023-05-09T08:38:24.856Z,30.84
2023-05-09T08:41:30.158Z,31.08
2023-05-09T08:44:32.362Z,31.50
2023-05-09T08:47:44.643Z,31.28
2023-05-09T08:50:47.237Z,31.37
2023-05-09T08:53:49.101Z,31.49
2023-05-09T08:56:51.635Z,31.24
2023-05-09T08:59:55.088Z,31.21
2023-05-09T09:03:00.881Z,31.36
2023-05-09T09:06:03.238Z,31.42
2023-05-09T09:09:08.767Z,31.65
2023-05-09T09:12:11.678Z,31.83
2023-05-09T09:15:17.956Z,31.29
2023-05-09T09:18:23.906Z,31.26
2023-05-09T09:21:26.308Z,31.31
2023-05-09T09:24:28.244Z,30.66
2023-05-09T09:27:30.022Z,30.37
2023-05-09T09:30:32.643Z,30.43
2023-05-09T09:33:35.813Z,29.93
2023-05-09T09:36:37.542Z,29.97
2023-05-09T09:39:54.200Z,30.48
2023-05-09T09:42:56.017Z,30.73
2023-05-09T09:46:01.493Z,30.75
2023-05-09T09:49:03.298Z,30.60
2023-05-09T09:52:05.046Z,30.64
2023-05-09T09:55:07.363Z,30.72
2023-05-09T09:58:21.940Z,29.95
2023-05-09T10:01:24.721Z,29.90
2023-05-09T10:04:30.082Z,29.67
2023-05-09T10:07:34.405Z,29.44
2023-05-09T10:10:37.768Z,29.35
2023-05-09T10:13:39.592Z,29.06
2023-05-09T10:16:44.232Z,29.05
2023-05-09T10:19:49.341Z,28.81
2023-05-09T10:22:55.948Z,28.79
2023-05-09T10:26:29.035Z,28.50
2023-05-09T10:29:35.362Z,28.08
2023-05-09T10:33:03.300Z,28.17
2023-05-09T10:36:06.549Z,28.47
2023-05-09T10:39:08.400Z,28.38
2023-05-09T10:42:10.839Z,28.39
2023-05-09T10:45:13.507Z,28.22
2023-05-09T10:48:16.293Z,27.91
2023-05-09T10:51:18.428Z,27.83
2023-05-09T10:54:30.870Z,27.43
2023-05-09T10:57:33.019Z,27.04
2023-05-09T11:00:41.598Z,26.59
2023-05-09T11:03:57.091Z,26.68
2023-05-09T11:07:00.546Z,27.54
2023-05-09T11:10:10.349Z,27.22
2023-05-09T11:13:12.219Z,27.14
2023-05-09T11:16:14.099Z,27.11
2023-05-09T11:19:34.192Z,27.10
2023-05-09T11:22:44.106Z,27.32
2023-05-09T11:25:47.992Z,27.45
2023-05-09T11:28:54.201Z,27.36
2023-05-09T11:32:06.465Z,27.24
2023-05-09T11:35:15.800Z,27.54
2023-05-09T11:38:21.493Z,27.96
2023-05-09T11:41:24.164Z,28.42
2023-05-09T11:44:27.946Z,27.85
2023-05-09T11:47:30.957Z,27.83
2023-05-09T11:50:33.113Z,27.88
2023-05-09T11:53:36.279Z,27.65
2023-05-09T11:56:40.388Z,28.66
2023-05-09T11:59:42.168Z,29.37
2023-05-09T12:02:45.886Z,29.52
2023-05-09T12:05:48.610Z,29.97
2023-05-09T12:08:50.647Z,29.70
2023-05-09T12:11:52.627Z,29.54
2023-05-09T12:14:54.794Z,29.39
2023-05-09T12:18:06.912Z,29.23
2023-05-09T12:21:08.755Z,29.13
2023-05-09T12:24:10.535Z,28.58
2023-05-09T12:27:12.764Z,28.13
2023-05-09T12:30:16.229Z,27.70
2023-05-09T12:33:18.919Z,27.39
2023-05-09T12:36:21.377Z,27.89
2023-05-09T12:39:23.262Z,27.76
2023-05-09T12:42:28.605Z,27.57
2023-05-09T12:45:33.699Z,27.49
2023-05-09T12:48:38.048Z,27.52
2023-05-09T12:51:48.438Z,27.91
2023-05-09T12:54:52.866Z,28.15
2023-05-09T12:58:02.567Z,28.51
2023-05-09T13:01:05.734Z,28.63
2023-05-09T13:04:07.763Z,28.64
2023-05-09T13:07:12.679Z,28.48
2023-05-09T13:10:21.556Z,28.41
2023-05-09T13:13:26.716Z,28.45
2023-05-09T13:16:29.025Z,28.93
2023-05-09T13:19:30.755Z,28.91
2023-05-09T13:22:32.975Z,28.72
2023-05-09T13:25:34.789Z,28.85
2023-05-09T13:28:36.605Z,28.41
2023-05-09T13:31:38.392Z,28.63
2023-05-09T13:34:41.490Z,28.71
2023-05-09T13:37:43.815Z,28.38
2023-05-09T13:40:45.844Z,27.82
2023-05-09T13:43:48.177Z,27.58
2023-05-09T13:46:50.624Z,26.95
2023-05-09T13:49:52.831Z,26.77
2023-05-09T13:52:54.564Z,27.38
2023-05-09T13:55:56.304Z,27.42
2023-05-09T13:58:58.188Z,27.37
2023-05-09T14:02:01.225Z,26.84
2023-05-09T14:05:04.358Z,27.09
2023-05-09T14:08:07.958Z,26.77
2023-05-09T14:11:09.661Z,26.88
2023-05-09T14:14:11.644Z,26.74
2023-05-09T14:17:13.466Z,26.64
2023-05-09T14:20:18.286Z,26.35
2023-05-09T14:23:20.362Z,26.23
2023-05-09T14:26:22.275Z,26.23
2023-05-09T14:29:23.962Z,26.10
2023-05-09T14:32:25.686Z,25.94
2023-05-09T14:35:27.743Z,25.66
2023-05-09T14:38:29.825Z,25.70
2023-05-09T14:41:31.886Z,25.93
2023-05-09T14:44:33.610Z,26.25
2023-05-09T14:47:35.422Z,25.95
2023-05-09T14:50:37.321Z,25.95
2023-05-09T14:53:42.146Z,25.61
2023-05-09T14:56:44.312Z,25.76
2023-05-09T14:59:46.155Z,25.52
2023-05-09T15:02:47.951Z,25.84
2023-05-09T15:05:50.784Z,25.94
2023-05-09T15:08:52.652Z,25.74
2023-05-09T15:11:55.114Z,25.81
2023-05-09T15:15:11.650Z,25.84
2023-05-09T15:18:15.942Z,26.43
2023-05-09T15:21:17.796Z,26.93
2023-05-09T15:24:19.524Z,26.99
2023-05-09T15:27:21.531Z,26.97
2023-05-09T15:30:23.455Z,27.34
2023-05-09T15:33:25.571Z,27.52
2023-05-09T15:36:30.130Z,27.10
2023-05-09T15:39:34.793Z,26.89
2023-05-09T15:42:37.679Z,28.06
2023-05-09T15:45:45.267Z,28.31
2023-05-09T15:48:47.303Z,28.65
2023-05-09T15:51:49.093Z,29.08
2023-05-09T15:54:50.958Z,29.26
2023-05-09T15:57:52.783Z,29.51
2023-05-09T16:00:54.534Z,29.44
2023-05-09T16:03:56.573Z,29.68
2023-05-09T16:06:58.725Z,29.94
2023-05-09T16:10:00.661Z,29.93
2023-05-09T16:13:02.423Z,30.11
2023-05-09T16:16:04.572Z,30.09
2023-05-09T16:19:07.206Z,30.30
2023-05-09T16:22:09.070Z,30.46
2023-05-09T16:25:11.433Z,30.92
2023-05-09T16:28:13.333Z,31.01
2023-05-09T16:31:14.980Z,31.33
2023-05-09T16:34:16.866Z,31.53
2023-05-09T16:37:19.105Z,31.54
2023-05-09T16:40:21.338Z,31.79
2023-05-09T16:43:23.016Z,32.23
2023-05-09T16:46:24.882Z,32.19
2023-05-09T16:49:26.828Z,32.62
2023-05-09T16:52:29.579Z,32.67
2023-05-09T16:55:31.436Z,32.93
2023-05-09T16:58:34.429Z,32.92
2023-05-09T17:01:37.857Z,33.12
2023-05-09T17:04:39.618Z,33.49
2023-05-09T17:07:41.547Z,33.32
2023-05-09T17:10:43.239Z,33.76
2023-05-09T17:13:45.117Z,33.71
2023-05-09T17:16:46.888Z,33.71
2023-05-09T17:19:49.011Z,34.01
2023-05-09T17:22:50.696Z,33.79
2023-05-09T17:25:52.519Z,33.88
2023-05-09T17:28:54.266Z,33.83
2023-05-09T17:32:02.293Z,34.20
2023-05-09T17:35:05.013Z,34.24
2023-05-09T17:38:06.835Z,34.39
2023-05-09T17:41:08.588Z,34.40
2023-05-09T17:44:11.308Z,34.43
2023-05-09T17:47:14.277Z,34.88
2023-05-09T17:50:17.315Z,35.33
2023-05-09T17:53:19.459Z,35.22
2023-05-09T17:56:22.482Z,35.49
2023-05-09T17:59:24.320Z,36.09
2023-05-09T18:02:27.391Z,36.24
2023-05-09T18:05:29.319Z,36.88
2023-05-09T18:08:31.160Z,37.46
2023-05-09T18:11:33.396Z,37.84
2023-05-09T18:14:35.847Z,37.40
2023-05-09T18:17:37.981Z,37.27
2023-05-09T18:20:39.850Z,37.79
2023-05-09T18:23:41.685Z,37.64
2023-05-09T18:26:43.557Z,37.65
2023-05-09T18:29:47.487Z,37.98
2023-05-09T18:32:49.379Z,38.08
2023-05-09T18:35:52.298Z,37.97
2023-05-09T18:38:54.231Z,38.31
2023-05-09T18:41:55.975Z,38.29
2023-05-09T18:45:00.628Z,38.53
2023-05-09T18:48:03.054Z,38.40
2023-05-09T18:51:05.056Z,38.38
2023-05-09T18:54:07.975Z,38.63
2023-05-09T18:57:09.971Z,38.42
2023-05-09T19:00:12.680Z,38.58
2023-05-09T19:03:14.439Z,38.17
2023-05-09T19:06:16.578Z,38.13
2023-05-09T19:09:18.525Z,38.13
2023-05-09T19:12:20.427Z,38.44
2023-05-09T19:15:23.327Z,38.61
2023-05-09T19:18:25.169Z,38.58
2023-05-09T19:21:28.365Z,38.68
2023-05-09T19:24:32.135Z,38.79
2023-05-09T19:27:33.937Z,38.95
2023-05-09T19:30:36.118Z,39.11
2023-05-09T19:33:38.264Z,39.55
2023-05-09T19:36:40.173Z,39.48
2023-05-09T19:39:41.932Z,40.31
2023-05-09T19:42:43.637Z,40.31
2023-05-09T19:45:45.571Z,40.28
2023-05-09T19:48:47.392Z,40.56
2023-05-09T19:51:49.314Z,40.75
2023-05-09T19:54:51.181Z,41.31
2023-05-09T19:57:53.083Z,40.99
2023-05-09T20:00:54.887Z,40.88
2023-05-09T20:03:57.005Z,41.22
2023-05-09T20:06:58.921Z,41.23
2023-05-09T20:10:00.678Z,41.09
2023-05-09T20:13:04.410Z,41.10
2023-05-09T20:16:06.541Z,41.34
2023-05-09T20:19:09.055Z,41.29
2023-05-09T20:22:11.598Z,41.16
2023-05-09T20:25:13.976Z,40.84
2023-05-09T20:28:20.149Z,40.68
2023-05-09T20:31:21.950Z,40.74
2023-05-09T20:34:24.862Z,40.82
2023-05-09T20:37:26.635Z,40.56
2023-05-09T20:40:28.705Z,40.58
2023-05-09T20:43:30.674Z,40.36
2023-05-09T20:46:32.597Z,40.16
2023-05-09T20:49:34.394Z,40.08
2023-05-09T20:52:36.262Z,39.53
2023-05-09T20:55:38.006Z,39.80
2023-05-09T20:58:39.776Z,39.78
2023-05-09T21:01:42.010Z,39.68
2023-05-09T21:04:44.491Z,39.62
2023-05-09T21:07:46.363Z,39.83
2023-05-09T21:10:51.506Z,39.74
2023-05-09T21:13:53.279Z,39.08
2023-05-09T21:16:58.107Z,39.54
2023-05-09T21:19:59.910Z,39.65
2023-05-09T21:23:01.677Z,40.08
2023-05-09T21:26:03.503Z,40.52
2023-05-09T21:29:05.416Z,40.83
2023-05-09T21:32:07.203Z,40.69
2023-05-09T21:35:12.715Z,40.88
2023-05-09T21:38:14.582Z,40.86
2023-05-09T21:41:16.397Z,41.18
2023-05-09T21:44:18.128Z,41.17
2023-05-09T21:47:19.935Z,41.45
2023-05-09T21:50:21.942Z,41.53
2023-05-09T21:53:23.785Z,41.62
2023-05-09T21:56:25.488Z,41.93
2023-05-09T21:59:27.286Z,41.72
2023-05-09T22:02:29.239Z,42.02
2023-05-09T22:05:31.423Z,41.92
2023-05-09T22:08:33.316Z,42.26
2023-05-09T22:11:35.397Z,41.95
2023-05-09T22:14:45.177Z,42.19
2023-05-09T22:17:54.657Z,42.32
2023-05-09T22:20:56.487Z,42.40
2023-05-09T22:23:58.274Z,42.53
2023-05-09T22:27:00.036Z,42.73
2023-05-09T22:30:02.832Z,42.65
2023-05-09T22:33:04.774Z,42.88
2023-05-09T22:36:07.225Z,43.27
2023-05-09T22:39:12.019Z,43.15
2023-05-09T22:42:13.754Z,43.37
2023-05-09T22:45:15.628Z,43.54
2023-05-09T22:48:17.484Z,43.70
2023-05-09T22:51:19.180Z,44.06
2023-05-09T22:54:22.299Z,43.92
2023-05-09T22:57:24.120Z,43.82
2023-05-09T23:00:25.874Z,44.30
2023-05-09T23:03:27.739Z,44.29
2023-05-09T23:06:29.673Z,44.27
2023-05-09T23:09:31.537Z,44.73
2023-05-09T23:12:33.372Z,44.78
2023-05-09T23:15:35.535Z,44.89
2023-05-09T23:18:37.220Z,45.28
2023-05-09T23:21:39.030Z,45.27
2023-05-09T23:24:41.304Z,45.03
2023-05-09T23:27:44.657Z,45.33
2023-05-09T23:30:46.302Z,45.62
2023-05-09T23:33:48.005Z,45.67
2023-05-09T23:36:49.747Z,46.03
2023-05-09T23:39:51.525Z,45.97
2023-05-09T23:42:53.345Z,46.08
2023-05-09T23:45:56.749Z,46.29
2023-05-09T23:48:58.584Z,46.40
2023-05-09T23:52:00.365Z,46.37
2023-05-09T23:55:02.375Z,47.01
2023-05-09T23:58:04.255Z,46.97
